z

Olsztyn

Wyniki

Bieg 3

05.12.2015 Dystans: 5 km Rodzaj: Bieg główny
Pobierz wyniki:
Miejsce Nr Nazwisko Imię Miasto Klub Rocznik Kategoria Czas netto Czas brutto
1 11 JACKIEWICZ MONIKA Szczecin CITY TRAIL TEAM 1992 K20 00:19:41 00:19:41
2 12 BARCEWICZ MARTA Olsztyn 12TRI.PL DRUŻYNA WILKA 1986 K20 00:19:51 00:19:52
3 460 TRZECIAK MAGDALENA Olsztyn AZS UWM OLSZTYN/GRUPA DBK 1995 K20 00:19:52 00:19:53
4 395 HANOWSKA WERONIKA Olsztyn AZS UWM OLSZTYN 1998 K16 00:21:19 00:21:22
5 493 GAWROŃSKA BEATA Olsztyn AKM OLIMP OLSZTYN/SKLEPBIEGOWY.COM 1973 K40 00:21:57 00:22:04
6 82 PIECZULIS KRYSTYNA Olsztyn AZS UWM OLSZTYN/AKM OLIMP/SKLEP BIEGOWY 1962 K50 00:22:16 00:22:19
7 314 GODLEWSKA IWONA Olsztyn GASSS ŁOMEN 1974 K40 00:22:32 00:22:44
8 365 ANDRUSZKIEWICZ-ĆWIK NATALIA Olsztyn 12TRI.PL DRUŻYNA WILKA 1985 K30 00:22:42 00:22:50
9 345 DUNAJSKA KAROLINA olsztyn 12TRI.PL DRUŻYNA WILKA 1989 K20 00:22:45 00:22:47
10 377 BRONAKOWSKA DOROTA Olsztyn 1982 K30 00:23:18 00:23:24
11 134 MAŃKOWSKA ANNA Olsztyn 12TRI.PL DRUŻYNA WILKA 1984 K30 00:23:19 00:23:26
12 113 LIPNICKA KATARZYNA Ostróda MTZ RENAULT ALCAR TEAM KOPEĆ 1982 K30 00:23:20 00:23:22
13 88 KĘDZIA MILENA Olsztyn 1997 K16 00:23:22 00:23:30
14 176 KUFEL MAGDALENA Świekatowo SĄD OKRĘGOWY W OLSZTYNIE 1987 K20 00:23:38 00:23:46
15 119 WASIAK MIŁOSŁAWA Działdowo 1991 K20 00:23:46 00:23:51
16 579 POPŁAWSKA SELENA Olsztyn TEAM KOPEĆ 1982 K30 00:23:49 00:24:01
17 44 BURANDT MAGDALENA Olszty 12TRI.PL DRUŻYNA WILKA 1980 K30 00:23:56 00:24:06
18 143 OLEJNIK BARBARA olsztyn 1980 K30 00:23:59 00:24:04
19 464 BOGUSZ JUSTYNA Mrągwo 12TRI.PL DRUŻYNA WILKA 1994 K20 00:24:02 00:24:11
20 366 KOŚCIESZA PATRYCJA Olsztyn TRI NEGU 1994 K20 00:24:15 00:24:21
21 231 DĄBKOWSKA-WILCZEK MARTA Olsztyn 12TRI.PL DRUŻYNA WILKA 1983 K30 00:24:23 00:24:43
22 223 JAKUBOWSKA KLAUDIA Olsztyn 1997 K16 00:24:42 00:24:50
23 445 MILCZAREK DANUTA OLSZTYN KOCHAM SWOJEGO MĘŻA 1973 K40 00:25:11 00:25:18
24 120 NICEWICZ MARTA Olsztyn 12TRI.PL DRUŻYNA WILKA 1985 K30 00:25:22 00:25:31
25 56 KULESZA MAŁGORZATA Olsztyn 4FUNEVENTS.PL 1965 K50 00:25:41 00:25:47
26 357 ROPIAK WIOLETTA olsztyn NUTRIPOL 1975 K40 00:25:43 00:25:47
27 250 CZYŻEWSKA MARIOLA olsztyn 12TRI.PL DRUŻYNA WILKA 1986 K20 00:25:55 00:26:04
28 455 TUNIEWICZ AGNIESZKA Pasłęk KB BIEGAMBOLUBIĘ PASŁĘK 1976 K30 00:25:56 00:26:04
29 476 WOŹNIAK AGNIESZKA Olsztyn 1979 K30 00:26:09 00:26:22
30 482 KUCZYŃSKA KINGA Mrągowo 1985 K30 00:26:20 00:26:37
31 276 ANTCZAK EDYTA Ostróda OSTRÓDZKA GRUPA BIEGOWA 1981 K30 00:26:24 00:26:34
32 131 ODOLIŃSKA AGNIESZKA Ostróda BRZOZOWSKI TEAM 1972 K40 00:26:28 00:26:39
33 431 BARNECKA PAULINA Olsztyn 1992 K20 00:26:30 00:26:40
34 300 PŁUCIENNICZAK DIANA Olsztyn PSZCZÓŁKOWSKI TEAM 1986 K20 00:26:34 00:26:49
35 73 KUNDA EDYTA Gietrzwałd TEAM BEZ NAZWY/KW OLSZTYN 1980 K30 00:26:41 00:26:53
36 279 KUTNICKA EMILIA Olsztyn 1967 K40 00:26:42 00:26:51
37 70 WILCZEWSKA MONIKA Olsztyn MONIKA 1984 K30 00:26:42 00:26:56
38 135 ROGOZIŃSKA MONIKA Olsztyn GRUPA DBK 1986 K20 00:26:43 00:26:57
39 448 BOLDA PATRYCJA Olsztyn FIZJOTERAPIA MATEUSZ DERLECKI 1993 K20 00:26:46 00:27:00
40 237 GRABIEC JOANNA Miłomłyn BRZOZOWSKI TEAM 1996 K16 00:26:55 00:27:15
41 179 SŁOWIKOWSKA MAGDALENA Olsztyn SĄD OKRĘGOWY W OLSZTYNIE 1975 K40 00:27:08 00:27:18
42 350 GAJEWSKA MARCELINA Olsztyn GAJÓWKA 1999 K16 00:27:16 00:27:33
43 319 TARNOWSKA ANNA Olsztyn PSZCZÓŁKOWSKI TEAM 1990 K20 00:27:17 00:27:34
44 389 PODLEWSKA ANNA OLSZTYN FITNESS CLUB SYLWETKA 1980 K30 00:27:20 00:27:32
45 76 SZWAJOREK EWELINA Olsztyn PSZCZÓŁKOWSKI TEAM 1987 K20 00:27:31 00:27:45
46 474 ROSIŃSKA KAROLINA Olsztyn 1992 K20 00:27:36 00:27:51
47 178 PAŃKOWSKA MARTYNA Olsztyn SĄD OKRĘGOWY W OLSZTYNIE 1987 K20 00:27:38 00:27:52
48 225 MOROZ KATARZYNA Olsztyn 1978 K30 00:27:40 00:27:53
49 127 KRAUSHAR MONIKA Giedajty DOMON 1974 K40 00:27:47 00:27:59
50 380 JANAS KAROLINA Bełchatów 1987 K20 00:27:56 00:28:13
51 32 POLAK MICHALINA Opole 1995 K20 00:28:01 00:28:16
52 265 GĄSIOREK JOANNA Jonkowo 1989 K20 00:28:09 00:28:23
53 149 WÓJCIK MONIKA Olsztyn TEAM KOPEĆ 1981 K30 00:28:12 00:28:28
54 114 KOSAKOWSKA-SZUTKOWSKA BARBARA Olsztyn AKM OLIMP OLSZTYN/SKLEPBIEGOWY.COM 1955 K60 00:28:14 00:28:31
55 562 BOCHNIAK KATARZYNA Olsztyn 1986 K20 00:28:14 00:28:29
56 229 PĘDZIWIATR JOANNA Olsztyn ZI SQUAD / PSZCZÓŁKOWSKI TEAM 1985 K30 00:28:14 00:28:30
57 36 ŻBIK ADA Olsztyn 1994 K20 00:28:19 00:28:39
58 167 BOBER WIOLETTA Olsztyn SĄD OKRĘGOWY W OLSZTYNIE 1970 K40 00:28:20 00:28:41
59 60 HOLOVIN HANNA Barczewko 1971 K40 00:28:20 00:28:37
60 313 FOTSCHKI JOLANTA Olsztyn 1963 K50 00:28:29 00:28:50
61 511 DZIDO EDYTA Nidzica NIDZICA BIEGA 1971 K40 00:28:33 00:28:37
62 558 KUREK MARIOLA Jonkowo PORBADY 1978 K30 00:28:33 00:28:57
63 436 KOMOROWSKA EWA Olsztyn RC KOMOROWSCY 1974 K40 00:28:36 00:28:56
64 292 NADZIAK WIOLETTA Morąg INKSPOT 1974 K40 00:28:44 00:29:07
65 512 OSTROMECKA ANNA Olsztyn 1987 K20 00:28:49 00:29:06
66 94 PANKOWSKA KATARZYNA Iława ORKAMASTERS IŁAWA 1983 K30 00:28:55 00:29:12
67 571 JANKOWSKA PAULINA Olsztyn TEAM BEZ NAZWY/KW OLSZTYN 1985 K30 00:28:56 00:29:11
68 575 KAROLEWSKA ANNA Olsztyn 1985 K30 00:28:57 00:29:17
69 68 DADASIEWICZ MARZENA Olsztyn 1979 K30 00:29:04 00:29:22
70 443 GRĄDZKA IZABELA Barczewo BARCZEWO BIEGA 1981 K30 00:29:04 00:29:16
71 333 TURALSKA MAŁGORZATA Olsztyn NUTRIPOL 1965 K50 00:29:05 00:29:22
72 253 STRACHOTA BARBARA Olsztyn BBL 1972 K40 00:29:07 00:29:30
73 106 ŻUCHNIEWICZ WIKTORIA Olsztyn LEŚNI BIEGACZE 1998 K16 00:29:19 00:29:42
74 184 GRANDYS AGNIESZKA Olsztyn SĄD OKRĘGOWY W OLSZTYNIE 1974 K40 00:29:21 00:29:33
75 466 STRĄCZEK DOMINIKA Olsztyn 1986 K20 00:29:26 00:29:50
76 41 PIĘDZIA IZABELA Olsztyn LEŚNI BIEGACZE 1974 K40 00:29:55 00:30:18
77 595 BARANOWSKA WIOLETA Olsztyn 1992 K20 00:30:03 00:30:26
78 596 KOŚCIESZA IZABELA Olsztyn 1973 K40 00:30:06 00:30:20
79 427 PODRAŻKA KAMILA Olsztyn 1986 K20 00:30:07 00:30:29
80 302 GAJEWSKA BARBARA Olsztyn GAJÓWKA 1964 K50 00:30:16 00:30:33
81 594 DEMBIŃSKA ANNA Marki 1991 K20 00:30:20 00:30:42
82 42 GIERZ-GIERSZEWSKA DOROTA Olsztyn TEAM BEZ NAZWY/KW OLSZTYN 1960 K50 00:30:24 00:30:45
83 248 KRAWIEC AGNIESZKA Olsztyn SĄD OKRĘGOWY W OLSZTYNIE 1977 K30 00:30:26 00:30:47
84 527 MAŃKOWSKA-SALIK IZABELA Olsztyn 1978 K30 00:30:34 00:30:57
85 574 TAMKUN PAULINA Dywity ŻELBETEAM 1993 K20 00:30:44 00:30:54
86 481 DOMAŃSKA EWA Olsztyn 1984 K30 00:30:47 00:31:08
87 177 OPAK BEATA Olsztyn SĄD OKRĘGOWY W OLSZTYNIE 1965 K50 00:31:27 00:31:52
88 410 BARTNIKOWSKA OLGA Olsztyn KINETIC TEAM 1977 K30 00:31:35 00:31:49
89 331 OPPENKOWSKA SYLWIA Olsztyn 1969 K40 00:31:44 00:32:07
90 321 KALINOWSKA MARTA Olsztyn 1982 K30 00:32:18 00:32:38
91 522 LACHOWICZ EMILIA Olsztyn VEGE RUNNERS 1982 K30 00:32:19 00:32:34
92 115 PANKOWSKA JUSTYNA Olsztyn 1973 K40 00:32:34 00:32:53
93 392 POTERAŁA-PASZKO KATARZYNA Olsztyn FITNESS CLUB SYLWETKA 1983 K30 00:32:35 00:32:59
94 518 GRZEGORZEWSKA KATARZYNA Gietrzwałd 1986 K20 00:32:37 00:33:01
95 393 SZEKLICKA MARZENA Olsztyn FITNESS CLUB SYLWETKA 1981 K30 00:33:06 00:33:31
96 104 GOŁAWSKA ALEKSANDRA Olsztyn 1989 K20 00:33:11 00:33:41
97 269 KAMIANKA MAŁGORZATA Olsztyn PSZCZÓŁKOWSKI TEAM 1973 K40 00:33:16 00:33:41
98 57 DRABIŃSKA NATALIA Olsztyn 1990 K20 00:33:27 00:33:53
99 175 KERBER IZABELA Barczewo SĄD OKRĘGOWY W OLSZTYNIE 1971 K40 00:33:53 00:34:19
100 105 ONISK DOROTA Olsztyn 1985 K30 00:34:00 00:34:26
101 30 RATUSZYŃSKA KASIA Olsztyn 1975 K40 00:34:03 00:34:26
102 409 HUSZLA IWONA OLSZTYN 1968 K40 00:34:05 00:34:18
103 198 AMBROŻKO WANDA Olsztyn 1948 K60 00:35:15 00:35:42
104 54 TWARDOWSKA MAGDALENA Olsztyn SĄSIEDZI Z BARCZA 1978 K30 00:35:30 00:35:55
105 412 PRZYGODZKA MAŁGORZATA Olsztyn 1986 K20 00:36:46 00:37:10
106 194 KOWALCZYK DARIA Olsztyn 1997 K16 00:36:49 00:37:06
107 174 KARWACKA-SAKOWICZ IWONA Olsztyn SĄD OKRĘGOWY W OLSZTYNIE 1984 K30 00:37:38 00:38:05
108 564 WESOŁOWSKA ANNA Olsztyn GRUPA DBK 1990 K20 00:37:52 00:38:13
109 183 TYC ASIA Olsztyn SĄD OKRĘGOWY W OLSZTYNIE 1978 K30 00:39:01 00:39:28
110 169 DZIARKOWSKA ALINA Olsztyn SĄD OKRĘGOWY W OLSZTYNIE 1974 K40 00:39:02 00:39:28

Sponsor tytularny

Partnerzy generalni